sensor_id;sensor_type;location;lat;lon;timestamp;P1;durP1;ratioP1;P2;durP2;ratioP2
1829;SDS011;914;48.118;11.600;2023-05-27T00:01:49;10.80;;;5.87;;
1829;SDS011;914;48.118;11.600;2023-05-27T00:04:15;9.73;;;6.37;;
1829;SDS011;914;48.118;11.600;2023-05-27T00:06:41;12.27;;;6.43;;
1829;SDS011;914;48.118;11.600;2023-05-27T00:09:06;8.73;;;6.60;;
1829;SDS011;914;48.118;11.600;2023-05-27T00:11:32;8.53;;;6.50;;
1829;SDS011;914;48.118;11.600;2023-05-27T00:13:58;10.63;;;6.20;;
1829;SDS011;914;48.118;11.600;2023-05-27T00:16:24;10.70;;;6.63;;
1829;SDS011;914;48.118;11.600;2023-05-27T00:18:50;8.87;;;6.60;;
1829;SDS011;914;48.118;11.600;2023-05-27T00:21:15;9.17;;;6.50;;
1829;SDS011;914;48.118;11.600;2023-05-27T00:23:45;7.93;;;6.80;;
1829;SDS011;914;48.118;11.600;2023-05-27T00:26:11;9.00;;;6.63;;
1829;SDS011;914;48.118;11.600;2023-05-27T00:28:37;10.00;;;6.97;;
1829;SDS011;914;48.118;11.600;2023-05-27T00:31:03;10.87;;;6.60;;
1829;SDS011;914;48.118;11.600;2023-05-27T00:33:28;10.70;;;6.63;;
1829;SDS011;914;48.118;11.600;2023-05-27T00:35:54;8.80;;;7.13;;
1829;SDS011;914;48.118;11.600;2023-05-27T00:38:20;11.77;;;6.50;;
1829;SDS011;914;48.118;11.600;2023-05-27T00:40:46;8.40;;;6.63;;
1829;SDS011;914;48.118;11.600;2023-05-27T00:43:11;9.93;;;7.30;;
1829;SDS011;914;48.118;11.600;2023-05-27T00:45:38;10.90;;;7.20;;
1829;SDS011;914;48.118;11.600;2023-05-27T00:48:03;10.37;;;6.67;;
1829;SDS011;914;48.118;11.600;2023-05-27T00:50:30;10.07;;;6.83;;
1829;SDS011;914;48.118;11.600;2023-05-27T00:52:55;12.53;;;7.40;;
1829;SDS011;914;48.118;11.600;2023-05-27T00:55:22;10.47;;;7.40;;
1829;SDS011;914;48.118;11.600;2023-05-27T00:57:49;9.87;;;7.27;;
1829;SDS011;914;48.118;11.600;2023-05-27T01:00:14;8.60;;;6.83;;
1829;SDS011;914;48.118;11.600;2023-05-27T01:02:40;12.90;;;6.87;;
1829;SDS011;914;48.118;11.600;2023-05-27T01:05:10;11.20;;;7.63;;
1829;SDS011;914;48.118;11.600;2023-05-27T01:10:20;9.50;;;7.03;;
1829;SDS011;914;48.118;11.600;2023-05-27T01:13:00;8.90;;;7.20;;
1829;SDS011;914;48.118;11.600;2023-05-27T01:15:46;9.80;;;7.20;;
1829;SDS011;914;48.118;11.600;2023-05-27T01:18:13;12.50;;;7.93;;
1829;SDS011;914;48.118;11.600;2023-05-27T01:20:42;8.47;;;7.10;;
1829;SDS011;914;48.118;11.600;2023-05-27T01:23:08;10.13;;;7.40;;
1829;SDS011;914;48.118;11.600;2023-05-27T01:25:34;11.13;;;7.53;;
1829;SDS011;914;48.118;11.600;2023-05-27T01:28:00;10.00;;;7.40;;
1829;SDS011;914;48.118;11.600;2023-05-27T01:30:26;10.73;;;6.87;;
1829;SDS011;914;48.118;11.600;2023-05-27T01:32:59;9.73;;;7.00;;
1829;SDS011;914;48.118;11.600;2023-05-27T01:35:37;12.30;;;7.80;;
1829;SDS011;914;48.118;11.600;2023-05-27T01:38:09;11.10;;;7.60;;
1829;SDS011;914;48.118;11.600;2023-05-27T01:40:38;8.67;;;7.63;;
1829;SDS011;914;48.118;11.600;2023-05-27T01:43:06;9.10;;;7.27;;
1829;SDS011;914;48.118;11.600;2023-05-27T01:45:32;10.50;;;7.47;;
1829;SDS011;914;48.118;11.600;2023-05-27T01:47:59;9.57;;;7.10;;
1829;SDS011;914;48.118;11.600;2023-05-27T01:50:25;8.23;;;6.67;;
1829;SDS011;914;48.118;11.600;2023-05-27T01:52:51;12.17;;;7.80;;
1829;SDS011;914;48.118;11.600;2023-05-27T01:55:17;10.70;;;7.60;;
1829;SDS011;914;48.118;11.600;2023-05-27T01:57:43;10.47;;;7.63;;
1829;SDS011;914;48.118;11.600;2023-05-27T02:00:09;11.47;;;7.77;;
1829;SDS011;914;48.118;11.600;2023-05-27T02:02:35;12.50;;;8.23;;
1829;SDS011;914;48.118;11.600;2023-05-27T02:05:01;11.10;;;7.50;;
1829;SDS011;914;48.118;11.600;2023-05-27T02:07:27;10.37;;;7.43;;
1829;SDS011;914;48.118;11.600;2023-05-27T02:09:53;10.27;;;7.20;;
1829;SDS011;914;48.118;11.600;2023-05-27T02:12:18;9.47;;;7.20;;
1829;SDS011;914;48.118;11.600;2023-05-27T02:14:45;10.77;;;7.87;;
1829;SDS011;914;48.118;11.600;2023-05-27T02:17:11;9.47;;;7.50;;
1829;SDS011;914;48.118;11.600;2023-05-27T02:19:39;9.37;;;7.17;;
1829;SDS011;914;48.118;11.600;2023-05-27T02:22:05;12.87;;;7.87;;
1829;SDS011;914;48.118;11.600;2023-05-27T02:24:31;12.47;;;8.03;;
1829;SDS011;914;48.118;11.600;2023-05-27T02:26:57;11.77;;;7.57;;
1829;SDS011;914;48.118;11.600;2023-05-27T02:29:23;9.37;;;7.13;;
1829;SDS011;914;48.118;11.600;2023-05-27T02:31:49;11.90;;;7.87;;
1829;SDS011;914;48.118;11.600;2023-05-27T02:34:14;11.07;;;7.30;;
1829;SDS011;914;48.118;11.600;2023-05-27T02:36:40;11.03;;;8.20;;
1829;SDS011;914;48.118;11.600;2023-05-27T02:39:06;10.17;;;7.87;;
1829;SDS011;914;48.118;11.600;2023-05-27T02:41:33;10.47;;;7.73;;
1829;SDS011;914;48.118;11.600;2023-05-27T02:43:59;11.00;;;7.13;;
1829;SDS011;914;48.118;11.600;2023-05-27T02:46:24;12.80;;;7.17;;
1829;SDS011;914;48.118;11.600;2023-05-27T02:48:50;9.93;;;7.70;;
1829;SDS011;914;48.118;11.600;2023-05-27T02:51:15;9.80;;;7.57;;
1829;SDS011;914;48.118;11.600;2023-05-27T02:53:41;12.00;;;7.43;;
1829;SDS011;914;48.118;11.600;2023-05-27T02:56:07;9.80;;;7.03;;
1829;SDS011;914;48.118;11.600;2023-05-27T02:58:32;10.07;;;7.37;;
1829;SDS011;914;48.118;11.600;2023-05-27T03:00:58;12.93;;;7.47;;
1829;SDS011;914;48.118;11.600;2023-05-27T03:03:24;10.00;;;7.87;;
1829;SDS011;914;48.118;11.600;2023-05-27T03:05:50;12.53;;;7.83;;
1829;SDS011;914;48.118;11.600;2023-05-27T03:08:15;7.90;;;7.10;;
1829;SDS011;914;48.118;11.600;2023-05-27T03:10:41;10.90;;;7.70;;
1829;SDS011;914;48.118;11.600;2023-05-27T03:13:07;13.27;;;7.87;;
1829;SDS011;914;48.118;11.600;2023-05-27T03:15:32;10.00;;;7.63;;
1829;SDS011;914;48.118;11.600;2023-05-27T03:17:58;10.17;;;7.70;;
1829;SDS011;914;48.118;11.600;2023-05-27T03:20:24;9.73;;;7.57;;
1829;SDS011;914;48.118;11.600;2023-05-27T03:22:50;9.93;;;7.47;;
1829;SDS011;914;48.118;11.600;2023-05-27T03:25:16;8.33;;;7.43;;
1829;SDS011;914;48.118;11.600;2023-05-27T03:27:41;8.17;;;6.80;;
1829;SDS011;914;48.118;11.600;2023-05-27T03:30:07;11.43;;;7.73;;
1829;SDS011;914;48.118;11.600;2023-05-27T03:32:33;12.67;;;7.37;;
1829;SDS011;914;48.118;11.600;2023-05-27T03:34:59;8.87;;;6.90;;
1829;SDS011;914;48.118;11.600;2023-05-27T03:37:25;10.13;;;7.03;;
1829;SDS011;914;48.118;11.600;2023-05-27T03:39:51;8.50;;;7.17;;
1829;SDS011;914;48.118;11.600;2023-05-27T03:42:18;9.47;;;7.03;;
1829;SDS011;914;48.118;11.600;2023-05-27T03:44:44;8.40;;;7.13;;
1829;SDS011;914;48.118;11.600;2023-05-27T03:47:09;9.03;;;6.83;;
1829;SDS011;914;48.118;11.600;2023-05-27T03:49:35;9.97;;;7.27;;
1829;SDS011;914;48.118;11.600;2023-05-27T03:52:00;12.37;;;7.23;;
1829;SDS011;914;48.118;11.600;2023-05-27T03:54:26;10.57;;;7.30;;
1829;SDS011;914;48.118;11.600;2023-05-27T03:56:51;11.67;;;7.90;;
1829;SDS011;914;48.118;11.600;2023-05-27T03:59:17;11.97;;;7.37;;
1829;SDS011;914;48.118;11.600;2023-05-27T04:01:43;11.77;;;7.70;;
1829;SDS011;914;48.118;11.600;2023-05-27T04:04:09;9.80;;;7.13;;
1829;SDS011;914;48.118;11.600;2023-05-27T04:06:35;9.57;;;7.10;;
1829;SDS011;914;48.118;11.600;2023-05-27T04:09:01;8.50;;;6.93;;
1829;SDS011;914;48.118;11.600;2023-05-27T04:11:30;10.83;;;7.23;;
1829;SDS011;914;48.118;11.600;2023-05-27T04:13:56;10.13;;;7.17;;
1829;SDS011;914;48.118;11.600;2023-05-27T04:16:22;8.67;;;7.10;;
1829;SDS011;914;48.118;11.600;2023-05-27T04:18:50;9.27;;;6.97;;
1829;SDS011;914;48.118;11.600;2023-05-27T04:21:17;8.23;;;7.10;;
1829;SDS011;914;48.118;11.600;2023-05-27T04:23:43;9.80;;;7.20;;
1829;SDS011;914;48.118;11.600;2023-05-27T04:26:09;8.30;;;7.40;;
1829;SDS011;914;48.118;11.600;2023-05-27T04:28:34;12.93;;;7.37;;
1829;SDS011;914;48.118;11.600;2023-05-27T04:31:00;10.17;;;7.47;;
1829;SDS011;914;48.118;11.600;2023-05-27T04:33:26;10.53;;;7.40;;
1829;SDS011;914;48.118;11.600;2023-05-27T04:35:54;9.70;;;7.30;;
1829;SDS011;914;48.118;11.600;2023-05-27T04:38:21;12.53;;;7.73;;
1829;SDS011;914;48.118;11.600;2023-05-27T04:40:49;7.90;;;7.07;;
1829;SDS011;914;48.118;11.600;2023-05-27T04:43:18;12.67;;;7.93;;
1829;SDS011;914;48.118;11.600;2023-05-27T04:45:44;14.43;;;7.70;;
1829;SDS011;914;48.118;11.600;2023-05-27T04:48:11;11.30;;;7.30;;
1829;SDS011;914;48.118;11.600;2023-05-27T04:50:37;12.60;;;7.70;;
1829;SDS011;914;48.118;11.600;2023-05-27T04:53:02;11.67;;;7.13;;
1829;SDS011;914;48.118;11.600;2023-05-27T04:55:28;10.80;;;6.97;;
1829;SDS011;914;48.118;11.600;2023-05-27T04:57:55;8.97;;;6.73;;
1829;SDS011;914;48.118;11.600;2023-05-27T05:00:21;10.27;;;6.83;;
1829;SDS011;914;48.118;11.600;2023-05-27T05:03:21;10.23;;;7.20;;
1829;SDS011;914;48.118;11.600;2023-05-27T05:05:51;11.33;;;6.73;;
1829;SDS011;914;48.118;11.600;2023-05-27T05:08:20;8.77;;;6.53;;
1829;SDS011;914;48.118;11.600;2023-05-27T05:10:47;15.20;;;7.13;;
1829;SDS011;914;48.118;11.600;2023-05-27T05:13:13;11.90;;;7.00;;
1829;SDS011;914;48.118;11.600;2023-05-27T05:15:41;14.73;;;6.77;;
1829;SDS011;914;48.118;11.600;2023-05-27T05:18:08;10.37;;;6.37;;
1829;SDS011;914;48.118;11.600;2023-05-27T05:20:35;8.60;;;6.43;;
1829;SDS011;914;48.118;11.600;2023-05-27T05:23:01;8.93;;;6.17;;
1829;SDS011;914;48.118;11.600;2023-05-27T05:25:29;8.30;;;6.33;;
1829;SDS011;914;48.118;11.600;2023-05-27T05:28:00;9.37;;;6.23;;
1829;SDS011;914;48.118;11.600;2023-05-27T05:30:26;11.10;;;6.57;;
1829;SDS011;914;48.118;11.600;2023-05-27T05:32:51;11.13;;;6.27;;
1829;SDS011;914;48.118;11.600;2023-05-27T05:35:17;8.57;;;6.20;;
1829;SDS011;914;48.118;11.600;2023-05-27T05:37:42;11.40;;;5.90;;
1829;SDS011;914;48.118;11.600;2023-05-27T05:40:09;9.73;;;5.83;;
1829;SDS011;914;48.118;11.600;2023-05-27T05:42:36;9.80;;;5.93;;
1829;SDS011;914;48.118;11.600;2023-05-27T05:45:01;9.90;;;6.20;;
1829;SDS011;914;48.118;11.600;2023-05-27T05:47:27;11.63;;;6.33;;
1829;SDS011;914;48.118;11.600;2023-05-27T05:49:52;10.07;;;6.30;;
1829;SDS011;914;48.118;11.600;2023-05-27T05:52:18;11.53;;;6.47;;
1829;SDS011;914;48.118;11.600;2023-05-27T05:54:43;13.10;;;6.17;;
1829;SDS011;914;48.118;11.600;2023-05-27T05:57:09;8.70;;;6.10;;
1829;SDS011;914;48.118;11.600;2023-05-27T05:59:35;7.67;;;5.57;;
1829;SDS011;914;48.118;11.600;2023-05-27T06:02:00;8.73;;;6.00;;
1829;SDS011;914;48.118;11.600;2023-05-27T06:04:26;7.80;;;5.43;;
1829;SDS011;914;48.118;11.600;2023-05-27T06:06:51;8.63;;;5.23;;
1829;SDS011;914;48.118;11.600;2023-05-27T06:09:26;8.90;;;5.07;;
1829;SDS011;914;48.118;11.600;2023-05-27T06:11:55;9.67;;;5.70;;
1829;SDS011;914;48.118;11.600;2023-05-27T06:14:21;6.27;;;5.30;;
1829;SDS011;914;48.118;11.600;2023-05-27T06:16:47;12.33;;;5.00;;
1829;SDS011;914;48.118;11.600;2023-05-27T06:19:13;8.03;;;5.43;;
1829;SDS011;914;48.118;11.600;2023-05-27T06:21:38;12.23;;;5.40;;
1829;SDS011;914;48.118;11.600;2023-05-27T06:24:04;9.53;;;5.20;;
1829;SDS011;914;48.118;11.600;2023-05-27T06:26:30;11.80;;;5.63;;
1829;SDS011;914;48.118;11.600;2023-05-27T06:28:56;10.27;;;5.53;;
1829;SDS011;914;48.118;11.600;2023-05-27T06:31:21;11.37;;;5.10;;
1829;SDS011;914;48.118;11.600;2023-05-27T06:33:47;9.33;;;4.60;;
1829;SDS011;914;48.118;11.600;2023-05-27T06:36:13;9.97;;;5.63;;
1829;SDS011;914;48.118;11.600;2023-05-27T06:38:38;7.67;;;4.80;;
1829;SDS011;914;48.118;11.600;2023-05-27T06:41:04;11.50;;;4.63;;
1829;SDS011;914;48.118;11.600;2023-05-27T06:43:30;7.83;;;4.80;;
1829;SDS011;914;48.118;11.600;2023-05-27T06:45:55;8.77;;;5.03;;
1829;SDS011;914;48.118;11.600;2023-05-27T06:48:21;9.50;;;5.03;;
1829;SDS011;914;48.118;11.600;2023-05-27T06:50:46;9.93;;;4.43;;
1829;SDS011;914;48.118;11.600;2023-05-27T06:53:12;10.10;;;5.00;;
1829;SDS011;914;48.118;11.600;2023-05-27T06:55:38;9.90;;;4.50;;
1829;SDS011;914;48.118;11.600;2023-05-27T06:58:04;7.00;;;4.73;;
1829;SDS011;914;48.118;11.600;2023-05-27T07:00:31;8.27;;;4.37;;
1829;SDS011;914;48.118;11.600;2023-05-27T07:02:57;8.67;;;4.10;;
1829;SDS011;914;48.118;11.600;2023-05-27T07:05:25;8.15;;;4.32;;
1829;SDS011;914;48.118;11.600;2023-05-27T07:07:51;8.38;;;4.40;;
1829;SDS011;914;48.118;11.600;2023-05-27T07:10:16;8.17;;;4.47;;
1829;SDS011;914;48.118;11.600;2023-05-27T07:12:42;7.95;;;4.20;;
1829;SDS011;914;48.118;11.600;2023-05-27T07:15:08;7.90;;;4.67;;
1829;SDS011;914;48.118;11.600;2023-05-27T07:17:33;7.90;;;4.67;;
1829;SDS011;914;48.118;11.600;2023-05-27T07:19:59;11.47;;;5.03;;
1829;SDS011;914;48.118;11.600;2023-05-27T07:22:25;9.23;;;4.60;;
1829;SDS011;914;48.118;11.600;2023-05-27T07:24:51;8.10;;;4.10;;
1829;SDS011;914;48.118;11.600;2023-05-27T07:27:20;9.63;;;4.53;;
1829;SDS011;914;48.118;11.600;2023-05-27T07:29:45;8.63;;;4.47;;
1829;SDS011;914;48.118;11.600;2023-05-27T07:32:11;9.20;;;4.00;;
1829;SDS011;914;48.118;11.600;2023-05-27T07:34:37;11.07;;;4.47;;
1829;SDS011;914;48.118;11.600;2023-05-27T07:37:03;10.03;;;4.33;;
1829;SDS011;914;48.118;11.600;2023-05-27T07:39:28;9.30;;;4.40;;
1829;SDS011;914;48.118;11.600;2023-05-27T07:41:54;10.60;;;4.43;;
1829;SDS011;914;48.118;11.600;2023-05-27T07:44:20;7.53;;;4.30;;
1829;SDS011;914;48.118;11.600;2023-05-27T07:46:45;11.65;;;4.55;;
1829;SDS011;914;48.118;11.600;2023-05-27T07:49:14;11.75;;;4.18;;
1829;SDS011;914;48.118;11.600;2023-05-27T07:51:43;11.30;;;4.30;;
1829;SDS011;914;48.118;11.600;2023-05-27T07:54:08;9.82;;;3.90;;
1829;SDS011;914;48.118;11.600;2023-05-27T07:56:34;9.48;;;4.25;;
1829;SDS011;914;48.118;11.600;2023-05-27T07:59:00;7.90;;;4.20;;
1829;SDS011;914;48.118;11.600;2023-05-27T08:01:25;7.55;;;4.00;;
1829;SDS011;914;48.118;11.600;2023-05-27T08:03:55;7.25;;;4.20;;
1829;SDS011;914;48.118;11.600;2023-05-27T08:06:21;7.45;;;4.60;;
1829;SDS011;914;48.118;11.600;2023-05-27T08:08:47;9.18;;;4.07;;
1829;SDS011;914;48.118;11.600;2023-05-27T08:11:13;11.27;;;4.70;;
1829;SDS011;914;48.118;11.600;2023-05-27T08:13:38;10.73;;;4.60;;
1829;SDS011;914;48.118;11.600;2023-05-27T08:16:04;10.13;;;4.68;;
1829;SDS011;914;48.118;11.600;2023-05-27T08:18:30;14.05;;;4.90;;
1829;SDS011;914;48.118;11.600;2023-05-27T08:20:55;6.75;;;4.28;;
1829;SDS011;914;48.118;11.600;2023-05-27T08:23:21;7.80;;;4.40;;
1829;SDS011;914;48.118;11.600;2023-05-27T08:25:46;10.75;;;4.43;;
1829;SDS011;914;48.118;11.600;2023-05-27T08:28:12;11.52;;;5.15;;
1829;SDS011;914;48.118;11.600;2023-05-27T08:30:38;10.38;;;4.75;;
1829;SDS011;914;48.118;11.600;2023-05-27T08:33:03;10.50;;;4.73;;
1829;SDS011;914;48.118;11.600;2023-05-27T08:35:30;10.93;;;5.10;;
1829;SDS011;914;48.118;11.600;2023-05-27T08:37:56;11.65;;;4.68;;
1829;SDS011;914;48.118;11.600;2023-05-27T08:40:21;9.57;;;4.35;;
1829;SDS011;914;48.118;11.600;2023-05-27T08:42:47;11.57;;;4.80;;
1829;SDS011;914;48.118;11.600;2023-05-27T08:45:13;8.82;;;5.05;;
1829;SDS011;914;48.118;11.600;2023-05-27T08:47:39;10.82;;;5.10;;
1829;SDS011;914;48.118;11.600;2023-05-27T08:50:06;7.88;;;4.35;;
1829;SDS011;914;48.118;11.600;2023-05-27T08:52:32;9.48;;;4.72;;
1829;SDS011;914;48.118;11.600;2023-05-27T08:55:00;10.27;;;4.57;;
1829;SDS011;914;48.118;11.600;2023-05-27T08:57:29;10.68;;;5.07;;
1829;SDS011;914;48.118;11.600;2023-05-27T08:59:56;16.38;;;4.95;;
1829;SDS011;914;48.118;11.600;2023-05-27T09:02:21;11.23;;;5.00;;
1829;SDS011;914;48.118;11.600;2023-05-27T09:04:48;9.70;;;4.90;;
1829;SDS011;914;48.118;11.600;2023-05-27T09:07:14;9.82;;;5.05;;
1829;SDS011;914;48.118;11.600;2023-05-27T09:09:41;10.57;;;5.10;;
1829;SDS011;914;48.118;11.600;2023-05-27T09:12:07;11.43;;;5.28;;
1829;SDS011;914;48.118;11.600;2023-05-27T09:14:35;8.63;;;5.00;;
1829;SDS011;914;48.118;11.600;2023-05-27T09:17:12;8.70;;;4.78;;
1829;SDS011;914;48.118;11.600;2023-05-27T09:19:37;8.60;;;4.68;;
1829;SDS011;914;48.118;11.600;2023-05-27T09:22:03;8.10;;;4.60;;
1829;SDS011;914;48.118;11.600;2023-05-27T09:24:29;8.15;;;4.95;;
1829;SDS011;914;48.118;11.600;2023-05-27T09:26:55;9.48;;;5.20;;
1829;SDS011;914;48.118;11.600;2023-05-27T09:29:24;12.82;;;5.03;;
1829;SDS011;914;48.118;11.600;2023-05-27T09:31:54;9.23;;;5.47;;
1829;SDS011;914;48.118;11.600;2023-05-27T09:34:22;6.95;;;4.53;;
1829;SDS011;914;48.118;11.600;2023-05-27T09:36:49;8.52;;;5.15;;
1829;SDS011;914;48.118;11.600;2023-05-27T09:39:19;7.55;;;5.15;;
1829;SDS011;914;48.118;11.600;2023-05-27T09:41:52;13.23;;;5.32;;
1829;SDS011;914;48.118;11.600;2023-05-27T09:44:18;8.90;;;5.45;;
1829;SDS011;914;48.118;11.600;2023-05-27T09:46:44;9.45;;;5.28;;
1829;SDS011;914;48.118;11.600;2023-05-27T09:49:16;10.15;;;5.13;;
1829;SDS011;914;48.118;11.600;2023-05-27T09:51:45;11.75;;;5.57;;
1829;SDS011;914;48.118;11.600;2023-05-27T09:54:12;9.80;;;5.20;;
1829;SDS011;914;48.118;11.600;2023-05-27T09:56:43;11.82;;;5.40;;
1829;SDS011;914;48.118;11.600;2023-05-27T09:59:13;10.52;;;5.57;;
1829;SDS011;914;48.118;11.600;2023-05-27T10:01:38;10.48;;;5.45;;
1829;SDS011;914;48.118;11.600;2023-05-27T10:04:06;10.70;;;5.40;;
1829;SDS011;914;48.118;11.600;2023-05-27T10:06:32;11.13;;;5.90;;
1829;SDS011;914;48.118;11.600;2023-05-27T10:09:00;11.40;;;5.13;;
1829;SDS011;914;48.118;11.600;2023-05-27T10:11:29;10.55;;;5.22;;
1829;SDS011;914;48.118;11.600;2023-05-27T10:14:02;9.30;;;4.75;;
1829;SDS011;914;48.118;11.600;2023-05-27T10:16:29;10.27;;;5.00;;
1829;SDS011;914;48.118;11.600;2023-05-27T10:18:58;7.28;;;4.40;;
1829;SDS011;914;48.118;11.600;2023-05-27T10:21:26;7.63;;;4.70;;
1829;SDS011;914;48.118;11.600;2023-05-27T10:23:57;8.23;;;4.85;;
1829;SDS011;914;48.118;11.600;2023-05-27T10:26:31;8.65;;;5.00;;
1829;SDS011;914;48.118;11.600;2023-05-27T10:29:04;7.80;;;4.60;;
1829;SDS011;914;48.118;11.600;2023-05-27T10:31:48;6.95;;;4.53;;
1829;SDS011;914;48.118;11.600;2023-05-27T10:34:17;9.65;;;5.28;;
1829;SDS011;914;48.118;11.600;2023-05-27T10:36:43;9.80;;;4.55;;
1829;SDS011;914;48.118;11.600;2023-05-27T10:39:14;8.40;;;4.40;;
1829;SDS011;914;48.118;11.600;2023-05-27T10:44:29;6.18;;;4.35;;
1829;SDS011;914;48.118;11.600;2023-05-27T10:47:08;8.52;;;4.50;;
1829;SDS011;914;48.118;11.600;2023-05-27T10:49:44;8.95;;;4.75;;
1829;SDS011;914;48.118;11.600;2023-05-27T10:52:12;9.50;;;4.10;;
1829;SDS011;914;48.118;11.600;2023-05-27T10:54:39;9.85;;;5.00;;
1829;SDS011;914;48.118;11.600;2023-05-27T10:57:06;7.32;;;4.55;;
1829;SDS011;914;48.118;11.600;2023-05-27T10:59:39;8.20;;;4.68;;
1829;SDS011;914;48.118;11.600;2023-05-27T11:02:09;7.53;;;4.15;;
1829;SDS011;914;48.118;11.600;2023-05-27T11:04:36;9.15;;;4.80;;
1829;SDS011;914;48.118;11.600;2023-05-27T11:07:02;8.45;;;4.80;;
1829;SDS011;914;48.118;11.600;2023-05-27T11:09:29;7.35;;;4.78;;
1829;SDS011;914;48.118;11.600;2023-05-27T11:12:16;7.95;;;4.57;;
1829;SDS011;914;48.118;11.600;2023-05-27T11:14:43;7.53;;;4.47;;
1829;SDS011;914;48.118;11.600;2023-05-27T11:17:09;8.93;;;4.80;;
1829;SDS011;914;48.118;11.600;2023-05-27T11:19:37;13.15;;;4.53;;
1829;SDS011;914;48.118;11.600;2023-05-27T11:22:05;7.05;;;4.65;;
1829;SDS011;914;48.118;11.600;2023-05-27T11:24:32;10.20;;;4.72;;
1829;SDS011;914;48.118;11.600;2023-05-27T11:26:57;11.63;;;5.07;;
1829;SDS011;914;48.118;11.600;2023-05-27T11:29:23;6.10;;;4.28;;
1829;SDS011;914;48.118;11.600;2023-05-27T11:31:48;9.38;;;4.50;;
1829;SDS011;914;48.118;11.600;2023-05-27T11:34:14;7.72;;;4.35;;
1829;SDS011;914;48.118;11.600;2023-05-27T11:36:43;7.85;;;4.30;;
1829;SDS011;914;48.118;11.600;2023-05-27T11:39:11;9.05;;;4.22;;
1829;SDS011;914;48.118;11.600;2023-05-27T11:41:50;8.07;;;4.20;;
1829;SDS011;914;48.118;11.600;2023-05-27T11:44:18;9.30;;;4.30;;
1829;SDS011;914;48.118;11.600;2023-05-27T11:46:49;6.43;;;4.40;;
1829;SDS011;914;48.118;11.600;2023-05-27T11:49:16;7.85;;;4.43;;
1829;SDS011;914;48.118;11.600;2023-05-27T11:51:43;8.32;;;4.05;;
1829;SDS011;914;48.118;11.600;2023-05-27T11:54:22;5.55;;;4.35;;
1829;SDS011;914;48.118;11.600;2023-05-27T11:56:53;8.15;;;4.20;;
1829;SDS011;914;48.118;11.600;2023-05-27T11:59:20;7.90;;;4.43;;
1829;SDS011;914;48.118;11.600;2023-05-27T12:01:47;10.00;;;4.95;;
1829;SDS011;914;48.118;11.600;2023-05-27T12:04:13;8.45;;;4.10;;
1829;SDS011;914;48.118;11.600;2023-05-27T12:06:38;6.20;;;4.20;;
1829;SDS011;914;48.118;11.600;2023-05-27T12:09:06;6.30;;;4.03;;
1829;SDS011;914;48.118;11.600;2023-05-27T12:11:36;6.03;;;3.90;;
1829;SDS011;914;48.118;11.600;2023-05-27T12:14:02;10.57;;;4.15;;
1829;SDS011;914;48.118;11.600;2023-05-27T12:16:28;8.77;;;4.35;;
1829;SDS011;914;48.118;11.600;2023-05-27T12:18:54;8.70;;;3.83;;
1829;SDS011;914;48.118;11.600;2023-05-27T12:21:19;8.15;;;4.05;;
1829;SDS011;914;48.118;11.600;2023-05-27T12:23:46;5.00;;;3.67;;
1829;SDS011;914;48.118;11.600;2023-05-27T12:26:12;5.15;;;3.80;;
1829;SDS011;914;48.118;11.600;2023-05-27T12:28:39;8.02;;;4.93;;
1829;SDS011;914;48.118;11.600;2023-05-27T12:31:06;7.97;;;4.22;;
1829;SDS011;914;48.118;11.600;2023-05-27T12:33:32;9.50;;;6.22;;
1829;SDS011;914;48.118;11.600;2023-05-27T12:35:58;6.75;;;4.85;;
1829;SDS011;914;48.118;11.600;2023-05-27T12:38:24;7.30;;;4.30;;
1829;SDS011;914;48.118;11.600;2023-05-27T12:40:49;10.20;;;5.00;;
1829;SDS011;914;48.118;11.600;2023-05-27T12:43:16;7.10;;;4.45;;
1829;SDS011;914;48.118;11.600;2023-05-27T12:45:43;7.35;;;4.18;;
1829;SDS011;914;48.118;11.600;2023-05-27T12:48:15;7.53;;;4.03;;
1829;SDS011;914;48.118;11.600;2023-05-27T12:50:42;6.47;;;4.63;;
1829;SDS011;914;48.118;11.600;2023-05-27T12:53:09;8.30;;;3.97;;
1829;SDS011;914;48.118;11.600;2023-05-27T12:55:35;7.63;;;3.75;;
1829;SDS011;914;48.118;11.600;2023-05-27T12:58:01;8.57;;;3.80;;
1829;SDS011;914;48.118;11.600;2023-05-27T13:00:27;8.00;;;3.97;;
1829;SDS011;914;48.118;11.600;2023-05-27T13:02:54;9.98;;;4.25;;
1829;SDS011;914;48.118;11.600;2023-05-27T13:05:19;5.55;;;4.05;;
1829;SDS011;914;48.118;11.600;2023-05-27T13:07:52;9.85;;;3.90;;
1829;SDS011;914;48.118;11.600;2023-05-27T13:10:20;5.45;;;3.95;;
1829;SDS011;914;48.118;11.600;2023-05-27T13:12:46;7.35;;;4.00;;
1829;SDS011;914;48.118;11.600;2023-05-27T13:15:15;6.82;;;4.03;;
1829;SDS011;914;48.118;11.600;2023-05-27T13:17:44;6.25;;;3.78;;
1829;SDS011;914;48.118;11.600;2023-05-27T13:20:11;7.18;;;3.35;;
1829;SDS011;914;48.118;11.600;2023-05-27T13:22:41;7.00;;;4.10;;
1829;SDS011;914;48.118;11.600;2023-05-27T13:25:08;5.78;;;3.90;;
1829;SDS011;914;48.118;11.600;2023-05-27T13:27:35;7.78;;;3.85;;
1829;SDS011;914;48.118;11.600;2023-05-27T13:30:01;5.40;;;3.90;;
1829;SDS011;914;48.118;11.600;2023-05-27T13:32:28;7.35;;;3.83;;
1829;SDS011;914;48.118;11.600;2023-05-27T13:34:54;5.80;;;3.85;;
1829;SDS011;914;48.118;11.600;2023-05-27T13:37:20;6.63;;;4.28;;
1829;SDS011;914;48.118;11.600;2023-05-27T13:39:46;5.10;;;4.13;;
1829;SDS011;914;48.118;11.600;2023-05-27T13:42:11;8.02;;;3.60;;
1829;SDS011;914;48.118;11.600;2023-05-27T13:44:37;5.20;;;3.28;;
1829;SDS011;914;48.118;11.600;2023-05-27T13:47:03;7.47;;;4.13;;
1829;SDS011;914;48.118;11.600;2023-05-27T13:49:29;8.05;;;4.10;;
1829;SDS011;914;48.118;11.600;2023-05-27T13:51:55;6.03;;;3.95;;
1829;SDS011;914;48.118;11.600;2023-05-27T13:54:20;8.60;;;4.15;;
1829;SDS011;914;48.118;11.600;2023-05-27T13:56:47;5.57;;;3.58;;
1829;SDS011;914;48.118;11.600;2023-05-27T13:59:14;5.70;;;3.72;;
1829;SDS011;914;48.118;11.600;2023-05-27T14:01:40;7.90;;;4.03;;
1829;SDS011;914;48.118;11.600;2023-05-27T14:04:06;9.95;;;4.22;;
1829;SDS011;914;48.118;11.600;2023-05-27T14:06:31;8.38;;;3.85;;
1829;SDS011;914;48.118;11.600;2023-05-27T14:08:57;7.28;;;3.90;;
1829;SDS011;914;48.118;11.600;2023-05-27T14:11:23;7.40;;;3.95;;
1829;SDS011;914;48.118;11.600;2023-05-27T14:13:49;7.35;;;4.30;;
1829;SDS011;914;48.118;11.600;2023-05-27T14:16:15;5.60;;;3.67;;
1829;SDS011;914;48.118;11.600;2023-05-27T14:18:41;7.75;;;4.05;;
1829;SDS011;914;48.118;11.600;2023-05-27T14:21:08;10.80;;;3.72;;
1829;SDS011;914;48.118;11.600;2023-05-27T14:23:34;6.65;;;3.67;;
1829;SDS011;914;48.118;11.600;2023-05-27T14:26:00;5.57;;;3.90;;
1829;SDS011;914;48.118;11.600;2023-05-27T14:28:25;5.60;;;3.80;;
1829;SDS011;914;48.118;11.600;2023-05-27T14:30:51;8.73;;;4.18;;
1829;SDS011;914;48.118;11.600;2023-05-27T14:33:18;7.38;;;3.67;;
1829;SDS011;914;48.118;11.600;2023-05-27T14:35:43;5.55;;;3.60;;
1829;SDS011;914;48.118;11.600;2023-05-27T14:38:10;7.53;;;3.92;;
1829;SDS011;914;48.118;11.600;2023-05-27T14:40:37;7.47;;;3.70;;
1829;SDS011;914;48.118;11.600;2023-05-27T14:43:03;5.68;;;4.13;;
1829;SDS011;914;48.118;11.600;2023-05-27T14:45:32;6.30;;;3.78;;
1829;SDS011;914;48.118;11.600;2023-05-27T14:47:57;10.25;;;3.65;;
1829;SDS011;914;48.118;11.600;2023-05-27T14:50:24;7.80;;;3.83;;
1829;SDS011;914;48.118;11.600;2023-05-27T14:52:50;9.00;;;4.60;;
1829;SDS011;914;48.118;11.600;2023-05-27T14:55:18;6.28;;;4.28;;
1829;SDS011;914;48.118;11.600;2023-05-27T14:57:44;5.90;;;3.58;;
1829;SDS011;914;48.118;11.600;2023-05-27T15:00:09;6.60;;;4.00;;
1829;SDS011;914;48.118;11.600;2023-05-27T15:02:36;6.68;;;3.95;;
1829;SDS011;914;48.118;11.600;2023-05-27T15:05:03;5.57;;;4.10;;
1829;SDS011;914;48.118;11.600;2023-05-27T15:07:33;6.25;;;3.65;;
1829;SDS011;914;48.118;11.600;2023-05-27T15:09:59;7.35;;;3.85;;
1829;SDS011;914;48.118;11.600;2023-05-27T15:12:25;6.45;;;3.60;;
1829;SDS011;914;48.118;11.600;2023-05-27T15:14:52;7.50;;;3.88;;